createdAt,value
2023-03-21T00:05:13.523Z,15.39
2023-03-21T00:11:00.187Z,15.37
2023-03-21T00:16:44.274Z,15.31
2023-03-21T00:22:28.583Z,15.26
2023-03-21T00:28:12.362Z,15.23
2023-03-21T00:33:56.282Z,15.2
2023-03-21T00:39:40.318Z,15.16
2023-03-21T00:45:24.006Z,15.17
2023-03-21T00:51:11.165Z,15.14
2023-03-21T00:56:54.886Z,15.16
2023-03-21T01:02:38.717Z,15.12
2023-03-21T01:08:31.357Z,15.13
2023-03-21T01:14:30.274Z,15.18
2023-03-21T01:20:14.548Z,15.16
2023-03-21T01:25:58.130Z,15.15
2023-03-21T01:31:42.057Z,15.18
2023-03-21T01:37:26.147Z,15.16
2023-03-21T01:43:15.182Z,15.16
2023-03-21T01:49:02.162Z,15.23
2023-03-21T01:54:46.836Z,15.21
2023-03-21T02:00:30.814Z,15.17
2023-03-21T02:06:16.326Z,15.16
2023-03-21T02:12:00.449Z,15.17
2023-03-21T02:17:49.161Z,15.15
2023-03-21T02:23:47.315Z,15.16
2023-03-21T02:29:42.431Z,15.19
2023-03-21T02:35:37.073Z,15.19
2023-03-21T02:41:42.330Z,15.22
2023-03-21T02:47:28.928Z,15.21
2023-03-21T02:53:14.711Z,15.24
2023-03-21T02:58:58.908Z,15.21
2023-03-21T03:04:43.516Z,15.19
2023-03-21T03:10:34.707Z,15.16
2023-03-21T03:16:26.015Z,15.16
2023-03-21T03:22:10.772Z,15.17
2023-03-21T03:27:56.443Z,15.2
2023-03-21T03:33:41.621Z,15.17
2023-03-21T03:39:29.706Z,15.16
2023-03-21T03:45:14.023Z,15.14
2023-03-21T03:51:00.499Z,15.11
2023-03-21T03:56:44.616Z,15.12
2023-03-21T04:02:28.257Z,15.11
2023-03-21T04:08:12.315Z,15.1
2023-03-21T04:13:56.087Z,15.1
2023-03-21T04:19:39.822Z,15.11
2023-03-21T04:25:32.640Z,15.14
2023-03-21T04:31:25.843Z,15.15
2023-03-21T04:37:09.993Z,15.13
2023-03-21T04:42:53.850Z,15.09
2023-03-21T04:48:37.539Z,15.09
2023-03-21T04:54:21.331Z,15.09
2023-03-21T05:00:07.359Z,15.09
2023-03-21T05:05:51.026Z,15.21
2023-03-21T05:11:36.116Z,15.12
2023-03-21T05:17:20.918Z,15.08
2023-03-21T05:23:04.415Z,15.08
2023-03-21T05:28:48.205Z,15.06
2023-03-21T05:34:31.961Z,15.05
2023-03-21T05:40:15.555Z,15.04
2023-03-21T05:45:59.163Z,15.06
2023-03-21T05:51:42.885Z,15.06
2023-03-21T05:57:26.884Z,15.09
2023-03-21T06:03:10.689Z,15.07
2023-03-21T06:08:54.678Z,15.04
2023-03-21T06:14:38.421Z,15.02
2023-03-21T06:20:22.324Z,15.1
2023-03-21T06:26:06.389Z,15.11
2023-03-21T06:31:49.831Z,15.06
2023-03-21T06:37:33.718Z,15.05
2023-03-21T06:43:17.558Z,15.11
2023-03-21T06:49:01.070Z,15.48
2023-03-21T06:54:44.719Z,15.55
2023-03-21T07:00:28.752Z,15.43
2023-03-21T07:06:12.708Z,15.42
2023-03-21T07:11:56.346Z,15.49
2023-03-21T07:17:40.099Z,15.52
2023-03-21T07:23:25.042Z,15.66
2023-03-21T07:29:09.840Z,15.79
2023-03-21T07:34:53.777Z,15.84
2023-03-21T07:40:37.696Z,15.95
2023-03-21T07:46:22.430Z,16.17
2023-03-21T07:52:06.471Z,16.28
2023-03-21T07:57:50.163Z,16.32
2023-03-21T08:03:34.139Z,16.39
2023-03-21T08:09:18.114Z,16.44
2023-03-21T08:15:01.817Z,16.53
2023-03-21T08:20:46.419Z,16.61
2023-03-21T08:26:30.214Z,16.66
2023-03-21T08:32:13.866Z,16.61
2023-03-21T08:37:57.631Z,16.59
2023-03-21T08:43:41.263Z,16.62
2023-03-21T08:49:24.925Z,16.67
2023-03-21T08:55:09.312Z,16.61
2023-03-21T09:00:53.126Z,16.64
2023-03-21T09:06:36.751Z,16.79
2023-03-21T09:12:20.335Z,16.91
2023-03-21T09:18:04.078Z,17.04
2023-03-21T09:23:48.982Z,17.15
2023-03-21T09:29:32.699Z,17.15
2023-03-21T09:35:16.943Z,17.28
2023-03-21T09:41:04.591Z,17.59
2023-03-21T09:46:50.487Z,17.92
2023-03-21T09:52:39.574Z,18.21
2023-03-21T09:58:25.517Z,18.31
2023-03-21T10:04:12.526Z,18.36
2023-03-21T10:09:57.559Z,18.42
2023-03-21T10:15:41.365Z,18.5
2023-03-21T10:27:30.381Z,18.94
2023-03-21T10:33:16.196Z,19.02
2023-03-21T10:39:01.864Z,19.21
2023-03-21T10:44:46.375Z,19.36
2023-03-21T10:50:31.187Z,19.59
2023-03-21T10:56:15.251Z,19.92
2023-03-21T11:01:58.968Z,20.15
2023-03-21T11:07:44.162Z,20.31
2023-03-21T11:13:33.724Z,20.61
2023-03-21T11:19:18.876Z,20.7
2023-03-21T11:25:05.407Z,20.95
2023-03-21T11:30:58.569Z,21.09
2023-03-21T11:36:42.826Z,21.16
2023-03-21T11:42:33.379Z,21.18
2023-03-21T11:48:17.102Z,21.38
2023-03-21T11:54:07.423Z,21.14
2023-03-21T11:59:56.191Z,21.17
2023-03-21T12:05:43.348Z,21.79
2023-03-21T12:11:31.031Z,21.61
2023-03-21T12:17:21.684Z,21.64
2023-03-21T12:23:15.510Z,21.7
2023-03-21T12:29:10.506Z,21.63
2023-03-21T12:35:07.672Z,21.49
2023-03-21T12:41:02.436Z,21.67
2023-03-21T12:46:49.423Z,21.93
2023-03-21T12:52:35.203Z,22.15
2023-03-21T12:58:21.958Z,22.4
2023-03-21T13:04:15.352Z,22.62
2023-03-21T13:09:59.254Z,22.93
2023-03-21T13:15:50.578Z,22.93
2023-03-21T13:21:41.349Z,22.94
2023-03-21T13:27:28.116Z,23.02
2023-03-21T13:33:13.581Z,23.09
2023-03-21T13:39:00.586Z,23.37
2023-03-21T13:44:50.242Z,23.25
2023-03-21T13:50:42.085Z,23.21
2023-03-21T13:56:26.485Z,23.29
2023-03-21T14:02:32.571Z,23.39
2023-03-21T14:08:25.016Z,23.17
2023-03-21T14:14:18.994Z,22.86
2023-03-21T14:20:07.051Z,22.61
2023-03-21T14:25:53.624Z,22.4
2023-03-21T14:31:38.588Z,22.1
2023-03-21T14:37:33.451Z,22.04
2023-03-21T14:43:18.131Z,21.81
2023-03-21T14:49:13.325Z,21.57
2023-03-21T14:54:59.488Z,21.46
2023-03-21T15:00:43.606Z,21.21
2023-03-21T15:06:27.352Z,21.08
2023-03-21T15:12:13.827Z,21.13
2023-03-21T15:18:01.797Z,21.33
2023-03-21T15:23:46.671Z,21.58
2023-03-21T15:29:32.723Z,21.52
2023-03-21T15:35:20.350Z,21.53
2023-03-21T15:41:25.735Z,21.37
2023-03-21T15:47:13.303Z,21.11
2023-03-21T15:52:59.103Z,21.04
2023-03-21T15:58:44.292Z,20.9
2023-03-21T16:04:28.015Z,20.75
2023-03-21T16:10:23.138Z,20.45
2023-03-21T16:16:07.128Z,20.27
2023-03-21T16:21:50.698Z,20.2
2023-03-21T16:27:34.630Z,20.09
2023-03-21T16:33:18.370Z,19.98
2023-03-21T16:39:02.317Z,20.01
2023-03-21T16:44:46.030Z,20.14
2023-03-21T16:50:31.036Z,20.08
2023-03-21T16:56:18.188Z,20.5
2023-03-21T17:02:02.262Z,20.28
2023-03-21T17:07:46.042Z,20.13
2023-03-21T17:13:29.674Z,20.11
2023-03-21T17:19:15.471Z,19.98
2023-03-21T17:24:59.244Z,19.89
2023-03-21T17:30:43.362Z,19.72
2023-03-21T17:36:30.192Z,19.65
2023-03-21T17:42:14.919Z,19.45
2023-03-21T17:47:59.594Z,19.3
2023-03-21T17:53:44.070Z,19.23
2023-03-21T17:59:27.750Z,19.08
2023-03-21T18:05:11.686Z,18.89
2023-03-21T18:10:55.552Z,18.76
2023-03-21T18:16:39.416Z,18.63
2023-03-21T18:22:23.755Z,18.48
2023-03-21T18:28:11.733Z,18.47
2023-03-21T18:34:00.668Z,18.49
2023-03-21T18:39:44.608Z,18.34
2023-03-21T18:45:28.247Z,18.2
2023-03-21T18:51:11.811Z,18.1
2023-03-21T19:03:14.044Z,17.96
2023-03-21T19:09:03.453Z,17.92
2023-03-21T19:14:52.074Z,17.88
2023-03-21T19:20:35.724Z,17.74
2023-03-21T19:26:20.555Z,17.69
2023-03-21T19:32:04.741Z,17.6
2023-03-21T19:37:48.853Z,17.54
2023-03-21T19:43:33.679Z,17.46
2023-03-21T19:49:17.908Z,17.41
2023-03-21T19:55:09.198Z,17.4
2023-03-21T20:00:52.842Z,17.38
2023-03-21T20:06:37.359Z,17.33
2023-03-21T20:12:21.003Z,17.31
2023-03-21T20:18:04.742Z,17.28
2023-03-21T20:23:48.391Z,17.27
2023-03-21T20:36:23.976Z,17.25
2023-03-21T20:41:40.271Z,17.22
2023-03-21T20:47:24.079Z,17.18
2023-03-21T20:53:07.939Z,17.16
2023-03-21T20:59:04.749Z,17.11
2023-03-21T21:05:23.965Z,17.12
2023-03-21T21:11:50.065Z,17.11
2023-03-21T21:17:17.513Z,17.1
2023-03-21T21:23:09.473Z,17.09
2023-03-21T21:28:55.425Z,17.06
2023-03-21T21:34:39.200Z,16.98
2023-03-21T21:40:23.266Z,16.92
2023-03-21T21:46:07.133Z,16.87
2023-03-21T21:51:50.921Z,16.85
2023-03-21T21:57:34.935Z,16.8
2023-03-21T22:03:18.739Z,16.74
2023-03-21T22:09:03.615Z,16.71
2023-03-21T22:14:47.717Z,16.69
2023-03-21T22:20:31.477Z,16.65
2023-03-21T22:26:15.393Z,16.64
2023-03-21T22:31:59.546Z,16.6
2023-03-21T22:37:43.781Z,16.56
2023-03-21T22:43:27.976Z,16.53
2023-03-21T22:49:11.615Z,16.53
2023-03-21T22:54:55.307Z,16.57
2023-03-21T23:00:40.290Z,16.52
2023-03-21T23:06:24.702Z,16.53
2023-03-21T23:12:08.579Z,16.56
2023-03-21T23:17:52.703Z,16.56
2023-03-21T23:23:36.965Z,16.53
2023-03-21T23:29:20.655Z,16.43
2023-03-21T23:35:04.743Z,16.38
2023-03-21T23:40:48.604Z,16.35
2023-03-21T23:46:32.325Z,16.32
2023-03-21T23:52:16.146Z,16.27
2023-03-21T23:57:59.947Z,16.22
